createdAt,value
2019-03-21T00:00:02.000Z,27.2
2019-03-21T00:02:02.000Z,27.2
2019-03-21T00:04:02.000Z,27.1
2019-03-21T00:05:02.000Z,27.1
2019-03-21T00:06:02.000Z,27.2
2019-03-21T00:08:02.000Z,27.2
2019-03-21T00:09:02.000Z,27.2
2019-03-21T00:11:02.000Z,27.3
2019-03-21T00:12:02.000Z,27.2
2019-03-21T00:13:02.000Z,27.3
2019-03-21T00:14:02.000Z,27.3
2019-03-21T00:16:02.000Z,27.2
2019-03-21T00:18:02.000Z,27.1
2019-03-21T00:20:02.000Z,27.1
2019-03-21T00:22:02.000Z,27
2019-03-21T00:23:02.000Z,27
2019-03-21T00:25:02.000Z,27.1
2019-03-21T00:26:02.000Z,27.1
2019-03-21T00:28:02.000Z,27.1
2019-03-21T00:30:02.000Z,27
2019-03-21T00:32:02.000Z,26.9
2019-03-21T00:34:02.000Z,26.9
2019-03-21T00:35:02.000Z,26.9
2019-03-21T00:37:02.000Z,27
2019-03-21T00:38:02.000Z,27.1
2019-03-21T00:39:02.000Z,27.1
2019-03-21T00:41:02.000Z,27.2
2019-03-21T00:42:02.000Z,27.2
2019-03-21T00:44:02.000Z,27.3
2019-03-21T00:45:47.000Z,27.2
2019-03-21T00:47:02.000Z,27.1
2019-03-21T00:48:02.000Z,27.1
2019-03-21T00:50:02.000Z,27.1
2019-03-21T00:52:02.000Z,27
2019-03-21T00:53:02.000Z,27
2019-03-21T00:54:02.000Z,27.1
2019-03-21T00:55:02.000Z,27.2
2019-03-21T00:56:02.000Z,27.2
2019-03-21T00:58:02.000Z,27.3
2019-03-21T00:59:02.000Z,27.3
2019-03-21T01:00:47.000Z,27.4
2019-03-21T01:02:02.000Z,27.3
2019-03-21T01:03:02.000Z,27.3
2019-03-21T01:05:02.000Z,27.2
2019-03-21T01:06:02.000Z,27.2
2019-03-21T01:07:02.000Z,27.2
2019-03-21T01:09:02.000Z,27.2
2019-03-21T01:10:02.000Z,27.2
2019-03-21T01:11:47.000Z,27.3
2019-03-21T01:13:02.000Z,27.2
2019-03-21T01:15:02.000Z,27.2
2019-03-21T01:17:02.000Z,27.1
2019-03-21T01:18:47.000Z,27
2019-03-21T01:20:02.000Z,27
2019-03-21T01:21:02.000Z,27
2019-03-21T01:23:02.000Z,27.1
2019-03-21T01:24:02.000Z,27.1
2019-03-21T01:26:02.000Z,27.2
2019-03-21T01:28:02.000Z,27.1
2019-03-21T01:29:02.000Z,27.2
2019-03-21T01:30:47.000Z,27.2
2019-03-21T01:32:02.000Z,27.1
2019-03-21T01:33:02.000Z,27.1
2019-03-21T01:35:02.000Z,27.1
2019-03-21T01:36:02.000Z,27.1
2019-03-21T01:37:02.000Z,27.2
2019-03-21T01:39:02.000Z,27.2
2019-03-21T01:40:02.000Z,27.2
2019-03-21T01:41:02.000Z,27.2
2019-03-21T01:42:47.000Z,27.2
2019-03-21T01:44:02.000Z,27.1
2019-03-21T01:45:02.000Z,27.2
2019-03-21T01:47:02.000Z,27.1
2019-03-21T01:48:47.000Z,27
2019-03-21T01:50:02.000Z,27
2019-03-21T01:52:02.000Z,26.9
2019-03-21T01:54:02.000Z,26.8
2019-03-21T01:56:02.000Z,26.9
2019-03-21T01:58:02.000Z,26.8
2019-03-21T01:59:02.000Z,26.8
2019-03-21T02:00:02.000Z,26.9
2019-03-21T02:02:02.000Z,27
2019-03-21T02:03:47.000Z,27
2019-03-21T02:05:02.000Z,27
2019-03-21T02:07:02.000Z,27
2019-03-21T02:09:02.000Z,27
2019-03-21T02:11:02.000Z,27
2019-03-21T02:12:02.000Z,27
2019-03-21T02:14:02.000Z,27
2019-03-21T02:15:50.000Z,27
2019-03-21T02:18:02.000Z,26.8
2019-03-21T02:19:02.000Z,26.8
2019-03-21T02:20:47.000Z,26.7
2019-03-21T02:22:02.000Z,26.7
2019-03-21T02:23:47.000Z,26.8
2019-03-21T02:25:02.000Z,26.8
2019-03-21T02:26:02.000Z,26.8
2019-03-21T02:28:02.000Z,26.9
2019-03-21T02:30:02.000Z,26.9
2019-03-21T02:31:02.000Z,26.9
2019-03-21T02:32:02.000Z,26.9
2019-03-21T02:33:02.000Z,26.9
2019-03-21T02:35:02.000Z,27
2019-03-21T02:37:02.000Z,26.9
2019-03-21T02:39:02.000Z,26.8
2019-03-21T02:41:02.000Z,26.7
2019-03-21T02:42:02.000Z,26.7
2019-03-21T02:44:02.000Z,26.8
2019-03-21T02:46:02.000Z,26.8
2019-03-21T02:48:02.000Z,26.7
2019-03-21T02:49:02.000Z,26.8
2019-03-21T02:51:02.000Z,26.8
2019-03-21T02:52:02.000Z,26.9
2019-03-21T02:54:02.000Z,26.9
2019-03-21T02:56:02.000Z,26.9
2019-03-21T02:57:02.000Z,26.9
2019-03-21T02:58:02.000Z,26.9
2019-03-21T03:00:02.000Z,27
2019-03-21T03:01:02.000Z,27
2019-03-21T03:03:02.000Z,27
2019-03-21T03:05:02.000Z,26.9
2019-03-21T03:06:02.000Z,26.9
2019-03-21T03:08:02.000Z,27
2019-03-21T03:10:02.000Z,26.9
2019-03-21T03:11:47.000Z,26.9
2019-03-21T03:13:02.000Z,26.9
2019-03-21T03:14:02.000Z,26.9
2019-03-21T03:16:02.000Z,26.8
2019-03-21T03:18:03.000Z,26.8
2019-03-21T03:20:03.000Z,26.8
2019-03-21T03:21:03.000Z,26.8
2019-03-21T03:23:03.000Z,26.9
2019-03-21T03:25:03.000Z,26.8
2019-03-21T03:27:03.000Z,26.7
2019-03-21T03:28:03.000Z,26.7
2019-03-21T03:29:03.000Z,26.8
2019-03-21T03:30:03.000Z,26.8
2019-03-21T03:31:03.000Z,26.9
2019-03-21T03:33:03.000Z,26.9
2019-03-21T03:35:03.000Z,26.9
2019-03-21T03:37:03.000Z,26.8
2019-03-21T03:39:03.000Z,26.8
2019-03-21T03:40:03.000Z,26.7
2019-03-21T03:41:03.000Z,26.8
2019-03-21T03:43:03.000Z,26.9
2019-03-21T03:44:47.000Z,26.9
2019-03-21T03:46:03.000Z,26.9
2019-03-21T03:47:03.000Z,26.8
2019-03-21T03:49:03.000Z,26.8
2019-03-21T03:51:03.000Z,26.8
2019-03-21T03:52:03.000Z,26.8
2019-03-21T03:54:03.000Z,26.7
2019-03-21T03:56:03.000Z,26.7
2019-03-21T03:57:03.000Z,26.7
2019-03-21T03:58:03.000Z,26.7
2019-03-21T04:00:03.000Z,26.8
2019-03-21T04:01:03.000Z,26.9
2019-03-21T04:02:03.000Z,26.9
2019-03-21T04:04:03.000Z,26.9
2019-03-21T04:06:03.000Z,26.9
2019-03-21T04:07:03.000Z,26.9
2019-03-21T04:09:03.000Z,26.9
2019-03-21T04:10:03.000Z,26.9
2019-03-21T04:11:03.000Z,27
2019-03-21T04:13:03.000Z,27
2019-03-21T04:15:03.000Z,26.9
2019-03-21T04:17:03.000Z,26.8
2019-03-21T04:18:03.000Z,26.8
2019-03-21T04:19:03.000Z,26.8
2019-03-21T04:20:03.000Z,26.9
2019-03-21T04:22:02.000Z,27
2019-03-21T04:23:02.000Z,27
2019-03-21T04:25:02.000Z,26.9
2019-03-21T04:26:02.000Z,26.9
2019-03-21T04:27:47.000Z,27
2019-03-21T04:29:02.000Z,26.9
2019-03-21T04:31:02.000Z,26.9
2019-03-21T04:32:02.000Z,26.9
2019-03-21T04:33:02.000Z,27
2019-03-21T04:34:02.000Z,27
2019-03-21T04:36:02.000Z,27
2019-03-21T04:37:02.000Z,27
2019-03-21T04:39:02.000Z,26.9
2019-03-21T04:41:02.000Z,26.8
2019-03-21T04:43:02.000Z,26.7
2019-03-21T04:45:02.000Z,26.7
2019-03-21T04:47:02.000Z,26.7
2019-03-21T04:49:02.000Z,26.7
2019-03-21T04:50:02.000Z,26.7
2019-03-21T04:52:02.000Z,26.8
2019-03-21T04:53:02.000Z,26.8
2019-03-21T04:55:02.000Z,26.9
2019-03-21T04:57:02.000Z,26.9
2019-03-21T04:58:47.000Z,26.8
2019-03-21T05:00:02.000Z,26.8
2019-03-21T05:02:02.000Z,26.6
2019-03-21T05:04:02.000Z,26.6
2019-03-21T05:05:02.000Z,26.6
2019-03-21T05:07:02.000Z,26.7
2019-03-21T05:08:02.000Z,26.7
2019-03-21T05:09:02.000Z,26.7
2019-03-21T05:11:02.000Z,26.8
2019-03-21T05:12:47.000Z,26.7
2019-03-21T05:14:02.000Z,26.7
2019-03-21T05:16:02.000Z,26.6
2019-03-21T05:17:02.000Z,26.5
2019-03-21T05:18:02.000Z,26.5
2019-03-21T05:20:02.000Z,26.6
2019-03-21T05:22:02.000Z,26.6
2019-03-21T05:24:02.000Z,26.6
2019-03-21T05:26:02.000Z,26.6
2019-03-21T05:28:02.000Z,26.5
2019-03-21T05:29:02.000Z,26.5
2019-03-21T05:31:02.000Z,26.5
2019-03-21T05:33:02.000Z,26.5
2019-03-21T05:35:02.000Z,26.5
2019-03-21T05:36:47.000Z,26.5
2019-03-21T05:38:02.000Z,26.4
2019-03-21T05:39:02.000Z,26.4
2019-03-21T05:40:02.000Z,26.5
2019-03-21T05:42:02.000Z,26.6
2019-03-21T05:43:47.000Z,26.6
2019-03-21T05:45:02.000Z,26.6
2019-03-21T05:47:02.000Z,26.7
2019-03-21T05:49:02.000Z,26.7
2019-03-21T05:51:02.000Z,26.8
2019-03-21T05:52:02.000Z,26.8
2019-03-21T05:53:02.000Z,26.8
2019-03-21T05:54:02.000Z,26.9
2019-03-21T05:56:02.000Z,27
2019-03-21T05:57:02.000Z,27
2019-03-21T05:59:02.000Z,27
2019-03-21T06:00:47.000Z,27
2019-03-21T06:02:02.000Z,26.8
2019-03-21T06:04:02.000Z,26.7
2019-03-21T06:05:02.000Z,26.8
2019-03-21T06:07:02.000Z,26.8
2019-03-21T06:09:02.000Z,26.9
2019-03-21T06:10:02.000Z,26.9
2019-03-21T06:11:02.000Z,27
2019-03-21T06:13:02.000Z,27.1
2019-03-21T06:14:02.000Z,27.2
2019-03-21T06:16:02.000Z,27.3
2019-03-21T06:18:02.000Z,27.4
2019-03-21T06:19:02.000Z,27.4
2019-03-21T06:21:02.000Z,27.4
2019-03-21T06:22:02.000Z,27.5
2019-03-21T06:24:02.000Z,27.5
2019-03-21T06:25:02.000Z,27.6
2019-03-21T06:26:50.000Z,27.5
2019-03-21T06:28:02.000Z,27.5
2019-03-21T06:29:02.000Z,27.5
2019-03-21T06:30:02.000Z,27.5
2019-03-21T06:31:02.000Z,27.6
2019-03-21T06:33:02.000Z,27.6
2019-03-21T06:35:02.000Z,27.7
2019-03-21T06:36:02.000Z,27.7
2019-03-21T06:37:02.000Z,27.8
2019-03-21T06:38:02.000Z,27.8
2019-03-21T06:40:02.000Z,27.8
2019-03-21T06:42:02.000Z,27.8
2019-03-21T06:44:02.000Z,27.8
2019-03-21T06:45:47.000Z,27.8
2019-03-21T06:48:02.000Z,27.6
2019-03-21T06:50:02.000Z,27.7
2019-03-21T06:52:02.000Z,27.8
2019-03-21T06:53:02.000Z,27.9
2019-03-21T06:55:02.000Z,27.9
2019-03-21T06:56:02.000Z,28
2019-03-21T06:57:02.000Z,28.1
2019-03-21T06:59:02.000Z,28.3
2019-03-21T07:01:02.000Z,28.4
2019-03-21T07:02:47.000Z,28.5
2019-03-21T07:04:02.000Z,28.5
2019-03-21T07:06:02.000Z,28.5
2019-03-21T07:07:02.000Z,28.5
2019-03-21T07:09:02.000Z,28.5
2019-03-21T07:10:47.000Z,28.6
2019-03-21T07:12:02.000Z,28.6
2019-03-21T07:14:02.000Z,28.6
2019-03-21T07:16:02.000Z,28.7
2019-03-21T07:18:02.000Z,28.9
2019-03-21T07:19:02.000Z,29
2019-03-21T07:20:02.000Z,29.1
2019-03-21T07:21:02.000Z,29.3
2019-03-21T07:23:02.000Z,29.4
2019-03-21T07:24:02.000Z,29.5
2019-03-21T07:26:02.000Z,29.6
2019-03-21T07:27:02.000Z,29.6
2019-03-21T07:28:02.000Z,29.7
2019-03-21T07:29:02.000Z,29.8
2019-03-21T07:30:02.000Z,29.9
2019-03-21T07:32:02.000Z,30
2019-03-21T07:34:02.000Z,30.1
2019-03-21T07:36:02.000Z,30
2019-03-21T07:38:02.000Z,30.1
2019-03-21T07:40:02.000Z,30.2
2019-03-21T07:42:02.000Z,30.3
2019-03-21T07:43:02.000Z,30.3
2019-03-21T07:44:02.000Z,30.4
2019-03-21T07:45:02.000Z,30.5
2019-03-21T07:46:02.000Z,30.6
2019-03-21T07:47:02.000Z,30.7
2019-03-21T07:49:02.000Z,30.7
2019-03-21T07:50:02.000Z,30.7
2019-03-21T07:51:02.000Z,30.8
2019-03-21T07:52:02.000Z,30.9
2019-03-21T07:54:02.000Z,31
2019-03-21T07:56:02.000Z,31
2019-03-21T07:58:02.000Z,30.8
2019-03-21T07:59:02.000Z,30.5
2019-03-21T08:00:02.000Z,30.2
2019-03-21T08:01:47.000Z,29.9
2019-03-21T08:03:02.000Z,29.7
2019-03-21T08:05:02.000Z,29.3
2019-03-21T08:06:02.000Z,29
2019-03-21T08:08:02.000Z,28.7
2019-03-21T08:09:02.000Z,28.6
2019-03-21T08:11:02.000Z,28.3
2019-03-21T08:12:02.000Z,28.2
2019-03-21T08:14:02.000Z,28
2019-03-21T08:16:02.000Z,27.8
2019-03-21T08:17:02.000Z,27.7
2019-03-21T08:18:02.000Z,27.7
2019-03-21T08:20:02.000Z,27.6
2019-03-21T08:22:02.000Z,27.4
2019-03-21T08:23:02.000Z,27.4
2019-03-21T08:25:02.000Z,27.4
2019-03-21T08:27:02.000Z,27.3
2019-03-21T08:28:02.000Z,27.3
2019-03-21T08:29:47.000Z,27.4
2019-03-21T08:31:02.000Z,27.4
2019-03-21T08:32:02.000Z,27.4
2019-03-21T08:34:02.000Z,27.3
2019-03-21T08:35:02.000Z,27.3
2019-03-21T08:37:03.000Z,27.3
2019-03-21T08:39:03.000Z,27.3
2019-03-21T08:41:03.000Z,27.2
2019-03-21T08:43:03.000Z,27.1
2019-03-21T08:45:03.000Z,27.1
2019-03-21T08:46:03.000Z,27.1
2019-03-21T08:47:03.000Z,27.2
2019-03-21T08:49:03.000Z,27.3
2019-03-21T08:50:03.000Z,27.3
2019-03-21T08:52:03.000Z,27.4
2019-03-21T08:54:03.000Z,27.4
2019-03-21T08:56:03.000Z,27.3
2019-03-21T08:58:03.000Z,27.3
2019-03-21T09:00:03.000Z,27.3
2019-03-21T09:01:03.000Z,27.3
2019-03-21T09:03:03.000Z,27.4
2019-03-21T09:05:03.000Z,27.3
2019-03-21T09:06:03.000Z,27.4
2019-03-21T09:08:03.000Z,27.4
2019-03-21T09:10:03.000Z,27.4
2019-03-21T09:11:03.000Z,27.4
2019-03-21T09:13:03.000Z,27.5
2019-03-21T09:15:03.000Z,27.4
2019-03-21T09:16:03.000Z,27.4
2019-03-21T09:18:03.000Z,27.5
2019-03-21T09:19:03.000Z,27.5
2019-03-21T09:20:03.000Z,27.5
2019-03-21T09:21:03.000Z,27.6
2019-03-21T09:23:03.000Z,27.5
2019-03-21T09:24:03.000Z,27.5
2019-03-21T09:26:03.000Z,27.6
2019-03-21T09:27:03.000Z,27.6
2019-03-21T09:28:03.000Z,27.6
2019-03-21T09:29:47.000Z,27.7
2019-03-21T09:30:50.000Z,27.5
2019-03-21T09:32:03.000Z,27.5
2019-03-21T09:34:03.000Z,27.3
2019-03-21T09:35:03.000Z,27.3
2019-03-21T09:37:03.000Z,27.3
2019-03-21T09:39:03.000Z,27.3
2019-03-21T09:40:03.000Z,27.4
2019-03-21T09:42:02.000Z,27.6
2019-03-21T09:43:02.000Z,27.7
2019-03-21T09:45:02.000Z,27.8
2019-03-21T09:46:02.000Z,27.9
2019-03-21T09:48:02.000Z,27.9
2019-03-21T09:50:02.000Z,27.8
2019-03-21T09:51:02.000Z,27.7
2019-03-21T09:53:02.000Z,27.7
2019-03-21T09:54:02.000Z,27.6
2019-03-21T09:55:47.000Z,27.5
2019-03-21T09:56:47.000Z,27.6
2019-03-21T09:58:02.000Z,27.6
2019-03-21T09:59:02.000Z,27.7
2019-03-21T10:01:02.000Z,27.8
2019-03-21T10:02:47.000Z,27.8
2019-03-21T10:04:02.000Z,27.9
2019-03-21T10:05:02.000Z,28
2019-03-21T10:07:02.000Z,28
2019-03-21T10:09:02.000Z,28.1
2019-03-21T10:11:02.000Z,28.2
2019-03-21T10:12:02.000Z,28.2
2019-03-21T10:14:02.000Z,28.4
2019-03-21T10:15:02.000Z,28.4
2019-03-21T10:17:02.000Z,28.4
2019-03-21T10:19:02.000Z,28.3
2019-03-21T10:21:02.000Z,28.3
2019-03-21T10:22:02.000Z,28.3
2019-03-21T10:24:02.000Z,28.4
2019-03-21T10:25:02.000Z,28.5
2019-03-21T10:27:02.000Z,28.5
2019-03-21T10:29:02.000Z,28.5
2019-03-21T10:31:02.000Z,28.5
2019-03-21T10:33:02.000Z,28.5
2019-03-21T10:35:02.000Z,28.5
2019-03-21T10:37:02.000Z,28.5
2019-03-21T10:39:02.000Z,28.5
2019-03-21T10:41:02.000Z,28.5
2019-03-21T10:42:02.000Z,28.6
2019-03-21T10:43:47.000Z,28.7
2019-03-21T10:45:02.000Z,28.6
2019-03-21T10:46:47.000Z,28.7
2019-03-21T10:48:02.000Z,28.7
2019-03-21T10:49:02.000Z,28.8
2019-03-21T10:51:02.000Z,28.9
2019-03-21T10:53:02.000Z,28.9
2019-03-21T10:54:02.000Z,28.9
2019-03-21T10:55:02.000Z,28.9
2019-03-21T10:56:47.000Z,29
2019-03-21T10:58:02.000Z,29
2019-03-21T10:59:02.000Z,29
2019-03-21T11:01:02.000Z,29
2019-03-21T11:03:02.000Z,28.9
2019-03-21T11:05:02.000Z,28.7
2019-03-21T11:07:02.000Z,28.6
2019-03-21T11:08:02.000Z,28.6
2019-03-21T11:10:02.000Z,28.7
2019-03-21T11:11:02.000Z,28.8
2019-03-21T11:13:02.000Z,28.9
2019-03-21T11:14:02.000Z,28.9
2019-03-21T11:16:02.000Z,29
2019-03-21T11:18:02.000Z,28.9
2019-03-21T11:19:02.000Z,28.9
2019-03-21T11:21:02.000Z,28.9
2019-03-21T11:22:47.000Z,28.9
2019-03-21T11:24:02.000Z,28.8
2019-03-21T11:25:02.000Z,28.8
2019-03-21T11:26:02.000Z,28.8
2019-03-21T11:28:02.000Z,28.8
2019-03-21T11:30:02.000Z,28.8
2019-03-21T11:32:02.000Z,28.7
2019-03-21T11:34:02.000Z,28.6
2019-03-21T11:35:02.000Z,28.6
2019-03-21T11:36:02.000Z,28.6
2019-03-21T11:37:02.000Z,28.7
2019-03-21T11:38:02.000Z,28.8
2019-03-21T11:40:02.000Z,28.9
2019-03-21T11:42:02.000Z,28.7
2019-03-21T11:43:02.000Z,28.7
2019-03-21T11:45:02.000Z,28.7
2019-03-21T11:47:02.000Z,28.5
2019-03-21T11:49:02.000Z,28.3
2019-03-21T11:51:02.000Z,28.3
2019-03-21T11:53:02.000Z,28.3
2019-03-21T11:55:02.000Z,28.5
2019-03-21T11:56:02.000Z,28.6
2019-03-21T11:58:02.000Z,28.7
2019-03-21T11:59:47.000Z,28.6
2019-03-21T12:01:02.000Z,28.5
2019-03-21T12:03:02.000Z,28.3
2019-03-21T12:05:02.000Z,28.2
2019-03-21T12:06:02.000Z,28.2
2019-03-21T12:08:02.000Z,28.4
2019-03-21T12:09:02.000Z,28.5
2019-03-21T12:11:02.000Z,28.7
2019-03-21T12:13:02.000Z,28.8
2019-03-21T12:15:02.000Z,28.9
2019-03-21T12:17:02.000Z,29.1
2019-03-21T12:18:02.000Z,29.1
2019-03-21T12:20:02.000Z,28.9
2019-03-21T12:21:02.000Z,28.8
2019-03-21T12:22:02.000Z,28.8
2019-03-21T12:24:02.000Z,28.7
2019-03-21T12:26:02.000Z,28.7
2019-03-21T12:28:02.000Z,28.5
2019-03-21T12:29:02.000Z,28.5
2019-03-21T12:30:02.000Z,28.6
2019-03-21T12:31:02.000Z,28.7
2019-03-21T12:33:02.000Z,28.9
2019-03-21T12:34:02.000Z,28.9
2019-03-21T12:35:02.000Z,29
2019-03-21T12:37:02.000Z,29.1
2019-03-21T12:38:02.000Z,29.1
2019-03-21T12:39:02.000Z,29.2
2019-03-21T12:40:46.000Z,29.2
2019-03-21T12:42:02.000Z,29
2019-03-21T12:43:02.000Z,29
2019-03-21T12:44:47.000Z,28.9
2019-03-21T12:46:02.000Z,28.8
2019-03-21T12:47:02.000Z,28.7
2019-03-21T12:49:02.000Z,28.7
2019-03-21T12:51:02.000Z,28.7
2019-03-21T12:52:02.000Z,28.7
2019-03-21T12:54:02.000Z,28.7
2019-03-21T12:56:02.000Z,28.6
2019-03-21T12:58:02.000Z,28.4
2019-03-21T13:00:02.000Z,28.4
2019-03-21T13:02:02.000Z,28.4
2019-03-21T13:04:02.000Z,28.5
2019-03-21T13:05:02.000Z,28.5
2019-03-21T13:07:02.000Z,28.7
2019-03-21T13:08:47.000Z,28.7
2019-03-21T13:10:02.000Z,28.7
2019-03-21T13:12:02.000Z,28.7
2019-03-21T13:13:02.000Z,28.8
2019-03-21T13:15:02.000Z,28.9
2019-03-21T13:17:02.000Z,28.9
2019-03-21T13:19:02.000Z,28.7
2019-03-21T13:20:02.000Z,28.7
2019-03-21T13:21:02.000Z,28.7
2019-03-21T13:22:48.000Z,28.9
2019-03-21T13:25:02.000Z,28.6
2019-03-21T13:26:02.000Z,28.6
2019-03-21T13:27:02.000Z,28.7
2019-03-21T13:29:02.000Z,28.9
2019-03-21T13:30:02.000Z,29
2019-03-21T13:31:47.000Z,29
2019-03-21T13:33:02.000Z,29
2019-03-21T13:35:02.000Z,29
2019-03-21T13:37:02.000Z,28.9
2019-03-21T13:38:02.000Z,28.9
2019-03-21T13:39:47.000Z,29.1
2019-03-21T13:41:02.000Z,29.2
2019-03-21T13:43:02.000Z,29.3
2019-03-21T13:45:02.000Z,29.4
2019-03-21T13:47:02.000Z,29.4
2019-03-21T13:48:02.000Z,29.5
2019-03-21T13:49:02.000Z,29.7
2019-03-21T13:51:02.000Z,30.4
2019-03-21T13:52:02.000Z,31.2
2019-03-21T13:54:02.000Z,32.8
2019-03-21T13:55:02.000Z,33.6
2019-03-21T13:57:02.000Z,34.6
2019-03-21T13:58:02.000Z,34.9
2019-03-21T13:59:02.000Z,34.9
2019-03-21T14:00:02.000Z,34.6
2019-03-21T14:01:02.000Z,34.1
2019-03-21T14:02:47.000Z,33.1
2019-03-21T14:04:02.000Z,32.5
2019-03-21T14:06:02.000Z,31.8
2019-03-21T14:07:02.000Z,31.5
2019-03-21T14:09:02.000Z,31.1
2019-03-21T14:11:02.000Z,30.8
2019-03-21T14:12:02.000Z,30.6
2019-03-21T14:13:02.000Z,30.5
2019-03-21T14:15:02.000Z,30.4
2019-03-21T14:16:47.000Z,30.4
2019-03-21T14:18:02.000Z,30.2
2019-03-21T14:20:02.000Z,30.1
2019-03-21T14:22:02.000Z,30
2019-03-21T14:24:02.000Z,30
2019-03-21T14:26:02.000Z,29.9
2019-03-21T14:28:02.000Z,29.9
2019-03-21T14:29:02.000Z,30
2019-03-21T14:31:02.000Z,30
2019-03-21T14:32:02.000Z,30
2019-03-21T14:33:47.000Z,30.1
2019-03-21T14:35:02.000Z,30.1
2019-03-21T14:36:02.000Z,30.1
2019-03-21T14:38:02.000Z,30.2
2019-03-21T14:40:02.000Z,30.1
2019-03-21T14:41:02.000Z,30.1
2019-03-21T14:42:02.000Z,30.1
2019-03-21T14:44:02.000Z,30.1
2019-03-21T14:46:02.000Z,30
2019-03-21T14:47:02.000Z,30
2019-03-21T14:48:02.000Z,30
2019-03-21T14:49:02.000Z,30.1
2019-03-21T14:51:02.000Z,30.2
2019-03-21T14:52:02.000Z,30.2
2019-03-21T14:53:02.000Z,30.3
2019-03-21T14:55:02.000Z,30.3
2019-03-21T14:56:47.000Z,30.4
2019-03-21T14:58:02.000Z,30.3
2019-03-21T15:00:02.000Z,30.3
2019-03-21T15:02:02.000Z,30.2
2019-03-21T15:03:02.000Z,30.2
2019-03-21T15:05:02.000Z,30.3
2019-03-21T15:06:02.000Z,30.3
2019-03-21T15:07:02.000Z,30.3
2019-03-21T15:08:47.000Z,30.4
2019-03-21T15:10:02.000Z,30.3
2019-03-21T15:11:02.000Z,30.3
2019-03-21T15:13:02.000Z,30.3
2019-03-21T15:15:02.000Z,30.2
2019-03-21T15:16:02.000Z,30.2
2019-03-21T15:17:02.000Z,30.2
2019-03-21T15:18:02.000Z,30.3
2019-03-21T15:20:02.000Z,30.4
2019-03-21T15:21:02.000Z,30.4
2019-03-21T15:22:02.000Z,30.5
2019-03-21T15:23:47.000Z,30.5
2019-03-21T15:25:02.000Z,30.4
2019-03-21T15:26:50.000Z,30.2
2019-03-21T15:28:02.000Z,30.1
2019-03-21T15:29:47.000Z,30
2019-03-21T15:31:02.000Z,29.9
2019-03-21T15:32:02.000Z,29.9
2019-03-21T15:33:02.000Z,29.9
2019-03-21T15:34:02.000Z,30
2019-03-21T15:36:02.000Z,30.1
2019-03-21T15:38:02.000Z,30.1
2019-03-21T15:40:02.000Z,30.1
2019-03-21T15:42:02.000Z,30.1
2019-03-21T15:43:02.000Z,30
2019-03-21T15:45:02.000Z,29.8
2019-03-21T15:46:02.000Z,29.6
2019-03-21T15:48:02.000Z,29.3
2019-03-21T15:50:02.000Z,29
2019-03-21T15:51:02.000Z,28.9
2019-03-21T15:53:02.000Z,28.8
2019-03-21T15:55:02.000Z,28.8
2019-03-21T15:57:02.000Z,28.7
2019-03-21T15:58:02.000Z,28.7
2019-03-21T15:59:02.000Z,28.8
2019-03-21T16:01:02.000Z,28.9
2019-03-21T16:02:47.000Z,29
2019-03-21T16:04:02.000Z,28.9
2019-03-21T16:05:02.000Z,28.9
2019-03-21T16:07:02.000Z,28.8
2019-03-21T16:08:02.000Z,28.8
2019-03-21T16:09:02.000Z,28.8
2019-03-21T16:11:02.000Z,28.8
2019-03-21T16:13:02.000Z,28.7
2019-03-21T16:14:47.000Z,28.6
2019-03-21T16:16:02.000Z,28.4
2019-03-21T16:17:02.000Z,28.3
2019-03-21T16:19:02.000Z,28.3
2019-03-21T16:21:02.000Z,28.3
2019-03-21T16:23:02.000Z,28.1
2019-03-21T16:24:02.000Z,28.1
2019-03-21T16:25:47.000Z,28
2019-03-21T16:27:02.000Z,27.9
2019-03-21T16:28:02.000Z,27.9
2019-03-21T16:30:02.000Z,27.9
2019-03-21T16:31:02.000Z,27.9
2019-03-21T16:33:02.000Z,27.9
2019-03-21T16:35:02.000Z,27.9
2019-03-21T16:36:02.000Z,28
2019-03-21T16:37:47.000Z,28
2019-03-21T16:39:02.000Z,28
2019-03-21T16:40:02.000Z,28
2019-03-21T16:42:02.000Z,28
2019-03-21T16:43:02.000Z,28
2019-03-21T16:45:02.000Z,27.9
2019-03-21T16:47:02.000Z,27.9
2019-03-21T16:48:02.000Z,27.9
2019-03-21T16:50:02.000Z,28
2019-03-21T16:51:02.000Z,28
2019-03-21T16:53:02.000Z,28
2019-03-21T16:54:02.000Z,28
2019-03-21T16:56:02.000Z,28.1
2019-03-21T16:58:02.000Z,28.2
2019-03-21T16:59:02.000Z,28.4
2019-03-21T17:01:02.000Z,28.6
2019-03-21T17:02:02.000Z,28.7
2019-03-21T17:03:02.000Z,28.8
2019-03-21T17:04:02.000Z,29
2019-03-21T17:06:02.000Z,29
2019-03-21T17:07:36.000Z,29.1
2019-03-21T17:09:23.000Z,29.3
2019-03-21T17:10:23.000Z,29.3
2019-03-21T17:12:23.000Z,29.3
2019-03-21T17:13:23.000Z,29.2
2019-03-21T17:15:23.000Z,29.1
2019-03-21T17:16:23.000Z,29.2
2019-03-21T17:18:23.000Z,29.3
2019-03-21T17:20:23.000Z,29.3
2019-03-21T17:22:23.000Z,29.2
2019-03-21T17:23:23.000Z,29.2
2019-03-21T17:24:23.000Z,29.2
2019-03-21T17:26:23.000Z,29.2
2019-03-21T17:28:23.000Z,29.2
2019-03-21T17:30:23.000Z,29.2
2019-03-21T17:31:23.000Z,29.2
2019-03-21T17:33:23.000Z,29.3
2019-03-21T17:35:08.000Z,29.4
2019-03-21T17:36:23.000Z,29.3
2019-03-21T17:38:23.000Z,29.3
2019-03-21T17:40:08.000Z,29.3
2019-03-21T17:41:23.000Z,29.3
2019-03-21T17:43:23.000Z,29.3
2019-03-21T17:45:23.000Z,29.3
2019-03-21T17:47:23.000Z,29.2
2019-03-21T17:49:23.000Z,29.2
2019-03-21T17:51:23.000Z,29.2
2019-03-21T17:52:23.000Z,29.2
2019-03-21T17:54:23.000Z,29.3
2019-03-21T17:56:23.000Z,29.2
2019-03-21T17:58:23.000Z,29.1
2019-03-21T18:00:23.000Z,29.1
2019-03-21T18:02:23.000Z,29.1
2019-03-21T18:03:23.000Z,29.1
2019-03-21T18:05:23.000Z,29.2
2019-03-21T18:07:23.000Z,29.3
2019-03-21T18:09:08.000Z,29.2
2019-03-21T18:10:23.000Z,29.2
2019-03-21T18:11:23.000Z,29.2
2019-03-21T18:12:23.000Z,29.3
2019-03-21T18:14:23.000Z,29.4
2019-03-21T18:16:23.000Z,29.3
2019-03-21T18:17:23.000Z,29.3
2019-03-21T18:19:23.000Z,29.4
2019-03-21T18:20:23.000Z,29.4
2019-03-21T18:22:23.000Z,29.4
2019-03-21T18:24:23.000Z,29.3
2019-03-21T18:26:23.000Z,29.2
2019-03-21T18:27:23.000Z,29.1
2019-03-21T18:29:23.000Z,29.1
2019-03-21T18:30:23.000Z,29.1
2019-03-21T18:32:23.000Z,29.2
2019-03-21T18:33:23.000Z,29.2
2019-03-21T18:35:23.000Z,29.3
2019-03-21T18:37:23.000Z,29.3
2019-03-21T18:39:23.000Z,29.2
2019-03-21T18:41:07.000Z,29.2
2019-03-21T18:42:23.000Z,29.1
2019-03-21T18:44:23.000Z,29
2019-03-21T18:46:23.000Z,29
2019-03-21T18:47:23.000Z,29
2019-03-21T18:49:23.000Z,29.1
2019-03-21T18:51:23.000Z,29
2019-03-21T18:52:23.000Z,29
2019-03-21T18:54:23.000Z,28.9
2019-03-21T18:55:23.000Z,29
2019-03-21T18:57:07.000Z,29
2019-03-21T18:58:23.000Z,29
2019-03-21T19:00:23.000Z,28.9
2019-03-21T19:02:23.000Z,28.9
2019-03-21T19:03:23.000Z,29
2019-03-21T19:05:23.000Z,29
2019-03-21T19:07:23.000Z,29
2019-03-21T19:09:23.000Z,29
2019-03-21T19:10:23.000Z,29
2019-03-21T19:12:23.000Z,29
2019-03-21T19:13:23.000Z,29.1
2019-03-21T19:15:23.000Z,29.1
2019-03-21T19:17:08.000Z,29.1
2019-03-21T19:18:23.000Z,29.1
2019-03-21T19:20:23.000Z,29.1
2019-03-21T19:22:23.000Z,29
2019-03-21T19:24:08.000Z,29
2019-03-21T19:26:23.000Z,28.8
2019-03-21T19:28:23.000Z,28.6
2019-03-21T19:30:23.000Z,28.5
2019-03-21T19:32:23.000Z,28.6
2019-03-21T19:33:23.000Z,28.6
2019-03-21T19:34:23.000Z,28.8
2019-03-21T19:36:08.000Z,28.9
2019-03-21T19:37:23.000Z,29
2019-03-21T19:38:23.000Z,29
2019-03-21T19:40:23.000Z,29
2019-03-21T19:42:23.000Z,29
2019-03-21T19:43:23.000Z,29
2019-03-21T19:45:08.000Z,29.1
2019-03-21T19:46:23.000Z,29.1
2019-03-21T19:47:23.000Z,29.1
2019-03-21T19:49:08.000Z,29.1
2019-03-21T19:50:23.000Z,29.1
2019-03-21T19:51:23.000Z,29.1
2019-03-21T19:53:23.000Z,29.2
2019-03-21T19:55:08.000Z,29.2
2019-03-21T19:56:09.000Z,29.1
2019-03-21T19:57:23.000Z,29.1
2019-03-21T19:58:23.000Z,29.1
2019-03-21T19:59:23.000Z,29.1
2019-03-21T20:01:23.000Z,29.2
2019-03-21T20:02:23.000Z,29.3
2019-03-21T20:03:23.000Z,29.3
2019-03-21T20:04:23.000Z,29.4
2019-03-21T20:05:23.000Z,29.4
2019-03-21T20:07:23.000Z,29.5
2019-03-21T20:09:23.000Z,29.4
2019-03-21T20:11:23.000Z,29.3
2019-03-21T20:12:23.000Z,29.3
2019-03-21T20:14:23.000Z,29.3
2019-03-21T20:15:23.000Z,29.3
2019-03-21T20:17:23.000Z,29.3
2019-03-21T20:18:23.000Z,29.3
2019-03-21T20:19:23.000Z,29.4
2019-03-21T20:21:22.000Z,29.3
2019-03-21T20:23:22.000Z,29.2
2019-03-21T20:24:22.000Z,29.2
2019-03-21T20:26:22.000Z,29.2
2019-03-21T20:28:07.000Z,29.2
2019-03-21T20:29:22.000Z,29.1
2019-03-21T20:31:22.000Z,29.1
2019-03-21T20:33:22.000Z,29
2019-03-21T20:34:22.000Z,29
2019-03-21T20:36:22.000Z,29.1
2019-03-21T20:37:22.000Z,29.1
2019-03-21T20:38:22.000Z,29.2
2019-03-21T20:40:22.000Z,29.2
2019-03-21T20:41:22.000Z,29.2
2019-03-21T20:42:22.000Z,29.2
2019-03-21T20:43:22.000Z,29.2
2019-03-21T20:45:22.000Z,29.2
2019-03-21T20:46:22.000Z,29.2
2019-03-21T20:48:22.000Z,29.2
2019-03-21T20:50:22.000Z,29.1
2019-03-21T20:52:22.000Z,29.1